createdAt,value
2019-01-24T00:00:10.300Z,100255.78
2019-01-24T00:02:38.804Z,100260.27
2019-01-24T00:05:06.507Z,100260.42
2019-01-24T00:07:33.131Z,100260.53
2019-01-24T00:09:59.624Z,100258.30
2019-01-24T00:12:26.226Z,100259.38
2019-01-24T00:14:53.001Z,100255.19
2019-01-24T00:17:19.479Z,100259.33
2019-01-24T00:19:45.968Z,100251.83
2019-01-24T00:22:12.429Z,100255.64
2019-01-24T00:24:38.886Z,100256.34
2019-01-24T00:27:05.552Z,100259.77
2019-01-24T00:29:32.107Z,100265.06
2019-01-24T00:31:59.660Z,100264.23
2019-01-24T00:34:26.293Z,100270.45
2019-01-24T00:36:52.912Z,100267.24
2019-01-24T00:39:21.195Z,100264.10
2019-01-24T00:41:47.989Z,100275.83
2019-01-24T00:44:14.567Z,100280.40
2019-01-24T00:46:41.231Z,100286.11
2019-01-24T00:49:07.908Z,100286.28
2019-01-24T00:51:34.398Z,100291.56
2019-01-24T00:54:00.995Z,100283.12
2019-01-24T00:56:27.450Z,100285.81
2019-01-24T00:58:57.124Z,100295.97
2019-01-24T01:01:23.599Z,100297.41
2019-01-24T01:03:50.073Z,100296.58
2019-01-24T01:06:16.633Z,100298.57
2019-01-24T01:08:43.089Z,100295.59
2019-01-24T01:11:09.622Z,100300.25
2019-01-24T01:13:36.163Z,100300.25
2019-01-24T01:16:05.502Z,100302.17
2019-01-24T01:18:32.108Z,100304.89
2019-01-24T01:20:58.603Z,100307.66
2019-01-24T01:23:25.639Z,100309.77
2019-01-24T01:25:52.321Z,100310.83
2019-01-24T01:28:18.840Z,100314.38
2019-01-24T01:30:45.470Z,100308.23
2019-01-24T01:33:11.992Z,100306.75
2019-01-24T01:35:38.656Z,100305.55
2019-01-24T01:38:05.233Z,100310.86
2019-01-24T01:40:31.833Z,100305.72
2019-01-24T01:42:58.823Z,100311.20
2019-01-24T01:45:27.668Z,100302.55
2019-01-24T01:47:54.215Z,100310.07
2019-01-24T01:50:23.117Z,100301.63
2019-01-24T01:52:49.778Z,100312.19
2019-01-24T01:55:16.230Z,100303.77
2019-01-24T01:57:42.764Z,100317.43
2019-01-24T02:00:14.252Z,100315.31
2019-01-24T02:02:43.506Z,100317.20
2019-01-24T02:05:11.434Z,100317.57
2019-01-24T02:07:37.897Z,100313.22
2019-01-24T02:10:09.195Z,100316.29
2019-01-24T02:12:38.054Z,100327.34
2019-01-24T02:15:08.349Z,100320.22
2019-01-24T02:17:34.829Z,100319.58
2019-01-24T02:20:01.663Z,100318.61
2019-01-24T02:22:28.530Z,100315.73
2019-01-24T02:24:57.123Z,100317.15
2019-01-24T02:27:23.818Z,100316.21
2019-01-24T02:29:50.342Z,100313.97
2019-01-24T02:32:19.170Z,100320.95
2019-01-24T02:34:49.684Z,100324.66
2019-01-24T02:37:14.238Z,100326.84
2019-01-24T02:39:40.780Z,100325.05
2019-01-24T02:42:07.363Z,100328.83
2019-01-24T02:44:35.280Z,100329.44
2019-01-24T02:47:01.852Z,100339.80
2019-01-24T02:49:30.692Z,100334.85
2019-01-24T02:51:57.164Z,100337.23
2019-01-24T02:54:23.810Z,100341.91
2019-01-24T02:56:50.287Z,100340.97
2019-01-24T02:59:17.012Z,100346.27
2019-01-24T03:01:43.575Z,100350.61
2019-01-24T03:04:10.020Z,100349.54
2019-01-24T03:06:36.516Z,100358.05
2019-01-24T03:09:05.044Z,100362.35
2019-01-24T03:11:31.624Z,100360.22
2019-01-24T03:13:58.349Z,100353.05
2019-01-24T03:16:24.813Z,100366.84
2019-01-24T03:18:51.340Z,100362.89
2019-01-24T03:21:17.863Z,100373.70
2019-01-24T03:23:44.423Z,100367.25
2019-01-24T03:26:10.882Z,100368.03
2019-01-24T03:28:40.570Z,100369.00
2019-01-24T03:31:07.366Z,100371.08
2019-01-24T03:33:34.008Z,100372.77
2019-01-24T03:36:00.467Z,100379.84
2019-01-24T03:38:26.986Z,100382.26
2019-01-24T03:40:53.814Z,100387.03
2019-01-24T03:43:20.757Z,100380.78
2019-01-24T03:45:47.412Z,100382.92
2019-01-24T03:48:14.000Z,100380.98
2019-01-24T03:50:41.118Z,100379.09
2019-01-24T03:53:07.935Z,100389.68
2019-01-24T03:55:34.825Z,100386.73
2019-01-24T03:58:02.050Z,100393.35
2019-01-24T04:00:29.022Z,100399.98
2019-01-24T04:02:55.883Z,100402.95
2019-01-24T04:05:22.687Z,100398.17
2019-01-24T04:07:49.644Z,100397.78
2019-01-24T04:10:20.212Z,100397.13
2019-01-24T04:12:47.137Z,100403.34
2019-01-24T04:15:17.970Z,100405.57
2019-01-24T04:17:45.866Z,100403.00
2019-01-24T04:20:12.748Z,100406.34
2019-01-24T04:22:39.328Z,100409.05
2019-01-24T04:25:07.119Z,100402.15
2019-01-24T04:27:33.741Z,100403.43
2019-01-24T04:30:00.349Z,100407.47
2019-01-24T04:32:27.064Z,100402.73
2019-01-24T04:34:53.524Z,100413.02
2019-01-24T04:37:23.225Z,100410.42
2019-01-24T04:39:49.890Z,100405.33
2019-01-24T04:42:16.838Z,100411.34
2019-01-24T04:44:43.313Z,100404.02
2019-01-24T04:47:09.776Z,100414.27
2019-01-24T04:49:37.177Z,100417.70
2019-01-24T04:52:03.604Z,100424.77
2019-01-24T04:54:30.285Z,100427.40
2019-01-24T04:56:57.134Z,100428.78
2019-01-24T04:59:23.608Z,100418.48
2019-01-24T05:01:50.106Z,100417.20
2019-01-24T05:04:17.852Z,100418.09
2019-01-24T05:06:44.300Z,100421.08
2019-01-24T05:09:10.811Z,100432.47
2019-01-24T05:11:37.479Z,100429.66
2019-01-24T05:14:03.974Z,100432.56
2019-01-24T05:16:33.211Z,100432.23
2019-01-24T05:19:04.625Z,100429.86
2019-01-24T05:21:31.170Z,100432.33
2019-01-24T05:23:57.708Z,100435.62
2019-01-24T05:26:24.454Z,100433.91
2019-01-24T05:28:50.977Z,100429.30
2019-01-24T05:31:17.438Z,100434.86
2019-01-24T05:33:44.167Z,100432.52
2019-01-24T05:36:10.717Z,100437.52
2019-01-24T05:38:37.361Z,100434.86
2019-01-24T05:41:03.867Z,100431.70
2019-01-24T05:43:31.093Z,100431.87
2019-01-24T05:45:57.622Z,100433.55
2019-01-24T05:48:24.270Z,100432.75
2019-01-24T05:50:50.983Z,100436.64
2019-01-24T05:53:17.741Z,100434.50
2019-01-24T05:55:47.820Z,100439.84
2019-01-24T05:58:16.672Z,100442.78
2019-01-24T06:00:44.824Z,100445.98
2019-01-24T06:03:11.789Z,100450.75
2019-01-24T06:05:41.816Z,100456.03
2019-01-24T06:08:07.518Z,100462.84
2019-01-24T06:10:34.407Z,100461.20
2019-01-24T06:13:01.052Z,100463.48
2019-01-24T06:15:27.869Z,100464.39
2019-01-24T06:17:54.776Z,100460.12
2019-01-24T06:20:23.591Z,100459.75
2019-01-24T06:22:53.294Z,100467.39
2019-01-24T06:25:20.122Z,100475.64
2019-01-24T06:27:46.995Z,100481.40
2019-01-24T06:30:22.440Z,100478.24
2019-01-24T06:32:49.469Z,100484.21
2019-01-24T06:35:16.451Z,100490.37
2019-01-24T06:37:43.080Z,100491.53
2019-01-24T06:40:13.939Z,100497.80
2019-01-24T06:42:40.872Z,100503.69
2019-01-24T06:45:12.382Z,100506.31
2019-01-24T06:47:40.695Z,100501.19
2019-01-24T06:50:11.088Z,100506.66
2019-01-24T06:52:38.311Z,100514.56
2019-01-24T06:55:10.523Z,100514.65
2019-01-24T06:57:40.336Z,100514.92
2019-01-24T07:00:12.325Z,100520.22
2019-01-24T07:02:39.075Z,100527.55
2019-01-24T07:05:05.518Z,100534.30
2019-01-24T07:07:35.206Z,100533.88
2019-01-24T07:10:05.630Z,100527.45
2019-01-24T07:12:33.569Z,100536.00
2019-01-24T07:15:00.372Z,100542.27
2019-01-24T07:17:27.269Z,100542.78
2019-01-24T07:19:54.238Z,100550.13
2019-01-24T07:22:20.772Z,100543.53
2019-01-24T07:24:47.613Z,100547.31
2019-01-24T07:27:14.261Z,100547.31
2019-01-24T07:29:40.922Z,100557.25
2019-01-24T07:32:07.874Z,100562.67
2019-01-24T07:34:34.719Z,100561.14
2019-01-24T07:37:01.485Z,100558.00
2019-01-24T07:39:28.281Z,100556.62
2019-01-24T07:43:30.575Z,100558.61
2019-01-24T07:45:57.195Z,100566.37
2019-01-24T07:48:23.676Z,100572.70
2019-01-24T07:50:50.197Z,100579.64
2019-01-24T07:53:16.870Z,100571.61
2019-01-24T07:55:44.435Z,100572.89
2019-01-24T07:58:10.876Z,100565.52
2019-01-24T08:00:37.422Z,100567.04
2019-01-24T08:03:03.905Z,100579.55
2019-01-24T08:05:30.538Z,100571.35
2019-01-24T08:07:57.235Z,100571.12
2019-01-24T08:10:23.758Z,100578.79
2019-01-24T08:12:50.372Z,100573.66
2019-01-24T08:15:19.794Z,100576.06
2019-01-24T08:17:46.316Z,100575.20
2019-01-24T08:20:19.117Z,100579.02
2019-01-24T08:22:45.585Z,100577.08
2019-01-24T08:25:13.079Z,100578.95
2019-01-24T08:27:39.754Z,100582.38
2019-01-24T08:30:11.823Z,100583.92
2019-01-24T08:32:38.364Z,100582.67
2019-01-24T08:35:07.172Z,100587.78
2019-01-24T08:37:33.964Z,100584.95
2019-01-24T08:40:00.621Z,100586.09
2019-01-24T08:42:27.259Z,100590.34
2019-01-24T08:44:53.749Z,100587.34
2019-01-24T08:47:20.260Z,100584.66
2019-01-24T08:49:46.793Z,100597.34
2019-01-24T08:52:13.366Z,100604.45
2019-01-24T08:54:39.846Z,100606.09
2019-01-24T08:57:06.565Z,100608.42
2019-01-24T08:59:33.067Z,100603.50
2019-01-24T09:01:59.520Z,100603.34
2019-01-24T09:04:26.002Z,100604.88
2019-01-24T09:06:52.948Z,100604.88
2019-01-24T09:09:19.363Z,100613.62
2019-01-24T09:11:47.742Z,100615.64
2019-01-24T09:14:14.200Z,100613.73
2019-01-24T09:16:40.822Z,100619.68
2019-01-24T09:19:07.382Z,100621.63
2019-01-24T09:21:33.874Z,100626.41
2019-01-24T09:24:00.448Z,100630.02
2019-01-24T09:26:26.927Z,100624.48
2019-01-24T09:28:53.378Z,100625.80
2019-01-24T09:31:19.861Z,100628.06
2019-01-24T09:33:46.531Z,100625.34
2019-01-24T09:36:13.045Z,100626.87
2019-01-24T09:38:39.521Z,100620.90
2019-01-24T09:41:06.049Z,100625.81
2019-01-24T09:43:32.479Z,100622.02
2019-01-24T09:45:58.939Z,100631.52
2019-01-24T09:48:25.459Z,100626.44
2019-01-24T09:50:51.972Z,100626.53
2019-01-24T09:53:18.418Z,100634.94
2019-01-24T09:55:44.877Z,100629.19
2019-01-24T09:58:11.375Z,100628.02
2019-01-24T10:00:38.110Z,100635.28
2019-01-24T10:03:04.781Z,100644.45
2019-01-24T10:05:31.277Z,100633.34
2019-01-24T10:07:57.889Z,100635.22
2019-01-24T10:10:26.938Z,100631.48
2019-01-24T10:12:54.479Z,100626.50
2019-01-24T10:15:21.264Z,100627.58
2019-01-24T10:18:44.423Z,100620.61
2019-01-24T10:21:11.029Z,100617.63
2019-01-24T10:23:39.841Z,100614.73
2019-01-24T10:26:08.100Z,100613.02
2019-01-24T10:28:34.531Z,100608.09
2019-01-24T10:31:01.060Z,100604.51
2019-01-24T10:33:27.680Z,100610.30
2019-01-24T10:35:54.209Z,100613.84
2019-01-24T10:38:20.656Z,100604.05
2019-01-24T10:40:47.152Z,100586.97
2019-01-24T10:43:14.735Z,100594.89
2019-01-24T10:45:41.594Z,100580.98
2019-01-24T10:48:08.147Z,100584.07
2019-01-24T10:50:35.289Z,100590.95
2019-01-24T10:53:03.256Z,100577.36
2019-01-24T10:55:29.738Z,100568.44
2019-01-24T10:57:58.822Z,100575.02
2019-01-24T11:00:31.548Z,100579.61
2019-01-24T11:02:58.948Z,100578.19
2019-01-24T11:05:25.556Z,100577.41
2019-01-24T11:07:52.073Z,100579.42
2019-01-24T11:10:19.975Z,100581.24
2019-01-24T11:12:47.298Z,100582.77
2019-01-24T11:15:21.778Z,100582.46
2019-01-24T11:17:49.414Z,100582.98
2019-01-24T11:20:18.047Z,100587.77
2019-01-24T11:22:46.079Z,100584.72
2019-01-24T11:25:17.570Z,100589.69
2019-01-24T11:27:44.113Z,100590.20
2019-01-24T11:41:25.659Z,100601.64
2019-01-24T11:43:52.561Z,100606.87
2019-01-24T11:46:19.756Z,100602.35
2019-01-24T11:48:46.819Z,100605.19
2019-01-24T11:51:14.850Z,100600.67
2019-01-24T11:53:41.814Z,100605.44
2019-01-24T11:56:08.823Z,100605.30
2019-01-24T11:58:35.470Z,100605.81
2019-01-24T12:01:01.958Z,100615.09
2019-01-24T12:03:28.419Z,100610.15
2019-01-24T12:05:54.904Z,100611.27
2019-01-24T12:08:21.404Z,100608.18
2019-01-24T12:10:47.959Z,100609.72
2019-01-24T12:13:14.420Z,100603.02
2019-01-24T12:15:41.054Z,100594.35
2019-01-24T12:18:07.720Z,100591.41
2019-01-24T12:20:37.587Z,100599.35
2019-01-24T12:23:04.151Z,100598.34
2019-01-24T12:25:31.679Z,100594.45
2019-01-24T12:27:58.262Z,100590.67
2019-01-24T12:30:29.712Z,100579.44
2019-01-24T12:32:57.260Z,100581.56
2019-01-24T12:35:24.065Z,100577.00
2019-01-24T12:37:51.649Z,100560.67
2019-01-24T12:40:18.112Z,100565.87
2019-01-24T12:42:44.728Z,100556.91
2019-01-24T12:45:16.002Z,100561.72
2019-01-24T12:47:42.555Z,100565.02
2019-01-24T12:50:15.136Z,100564.23
2019-01-24T12:52:43.300Z,100566.44
2019-01-24T12:55:10.980Z,100560.84
2019-01-24T12:57:37.461Z,100563.63
2019-01-24T13:00:09.660Z,100574.86
2019-01-24T13:02:37.350Z,100571.08
2019-01-24T13:05:05.779Z,100565.27
2019-01-24T13:07:32.258Z,100569.16
2019-01-24T13:09:58.832Z,100567.66
2019-01-24T13:12:25.302Z,100573.23
2019-01-24T13:14:51.750Z,100570.66
2019-01-24T13:17:18.381Z,100572.55
2019-01-24T13:20:41.319Z,100570.02
2019-01-24T13:23:07.829Z,100558.07
2019-01-24T13:25:34.590Z,100556.38
2019-01-24T13:28:01.098Z,100560.98
2019-01-24T13:30:30.536Z,100573.64
2019-01-24T13:32:57.032Z,100561.16
2019-01-24T13:35:23.660Z,100569.47
2019-01-24T13:37:51.126Z,100570.00
2019-01-24T13:40:23.925Z,100572.84
2019-01-24T13:42:51.547Z,100564.99
2019-01-24T13:45:41.004Z,100563.17
2019-01-24T13:48:07.624Z,100563.78
2019-01-24T13:50:34.068Z,100568.06
2019-01-24T13:53:00.753Z,100569.16
2019-01-24T13:55:27.276Z,100565.67
2019-01-24T13:57:54.851Z,100569.61
2019-01-24T14:00:26.683Z,100573.52
2019-01-24T14:02:58.626Z,100577.78
2019-01-24T14:05:28.140Z,100564.92
2019-01-24T14:07:54.794Z,100556.42
2019-01-24T14:10:23.354Z,100569.13
2019-01-24T14:12:50.123Z,100560.45
2019-01-24T14:15:19.310Z,100549.95
2019-01-24T14:17:46.211Z,100553.80
2019-01-24T14:20:17.622Z,100558.95
2019-01-24T14:22:44.759Z,100553.01
2019-01-24T14:25:15.867Z,100565.50
2019-01-24T14:27:42.413Z,100556.70
2019-01-24T14:30:14.528Z,100565.61
2019-01-24T14:32:41.383Z,100560.89
2019-01-24T14:35:07.992Z,100551.95
2019-01-24T14:37:39.747Z,100555.67
2019-01-24T14:40:07.326Z,100560.95
2019-01-24T14:42:33.799Z,100552.19
2019-01-24T14:45:00.268Z,100554.32
2019-01-24T14:47:26.764Z,100558.89
2019-01-24T14:50:50.132Z,100551.48
2019-01-24T14:53:16.686Z,100556.31
2019-01-24T14:55:43.155Z,100568.70
2019-01-24T14:58:09.645Z,100565.28
2019-01-24T15:00:41.513Z,100551.43
2019-01-24T15:03:08.070Z,100560.08
2019-01-24T15:05:34.608Z,100561.28
2019-01-24T15:08:01.284Z,100555.56
2019-01-24T15:10:27.786Z,100553.71
2019-01-24T15:12:54.335Z,100553.91
2019-01-24T15:15:21.917Z,100560.27
2019-01-24T15:17:48.411Z,100566.31
2019-01-24T15:20:16.745Z,100558.41
2019-01-24T15:22:43.168Z,100565.75
2019-01-24T15:25:13.127Z,100565.89
2019-01-24T15:27:39.565Z,100567.23
2019-01-24T15:30:11.555Z,100569.03
2019-01-24T15:32:38.228Z,100567.23
2019-01-24T15:35:04.879Z,100576.55
2019-01-24T15:37:31.339Z,100574.16
2019-01-24T15:39:57.935Z,100576.39
2019-01-24T15:42:25.041Z,100582.27
2019-01-24T15:44:51.963Z,100582.06
2019-01-24T15:47:18.702Z,100576.03
2019-01-24T15:49:45.174Z,100579.36
2019-01-24T15:52:11.620Z,100585.94
2019-01-24T15:54:38.271Z,100582.82
2019-01-24T15:57:04.763Z,100582.73
2019-01-24T15:59:31.421Z,100581.66
2019-01-24T16:01:57.984Z,100579.45
2019-01-24T16:04:24.430Z,100584.61
2019-01-24T16:06:50.960Z,100584.12
2019-01-24T16:09:17.530Z,100590.67
2019-01-24T16:11:44.061Z,100594.45
2019-01-24T16:14:10.723Z,100597.39
2019-01-24T16:16:37.217Z,100603.18
2019-01-24T16:19:03.729Z,100603.77
2019-01-24T16:21:30.197Z,100608.17
2019-01-24T16:23:56.786Z,100613.27
2019-01-24T16:26:23.391Z,100609.42
2019-01-24T16:28:51.069Z,100613.55
2019-01-24T16:31:17.673Z,100620.36
2019-01-24T16:33:44.274Z,100618.33
2019-01-24T16:36:10.942Z,100622.42
2019-01-24T16:38:37.572Z,100620.06
2019-01-24T16:41:04.435Z,100616.69
2019-01-24T16:43:31.303Z,100633.08
2019-01-24T16:45:57.936Z,100624.77
2019-01-24T16:48:24.514Z,100624.97
2019-01-24T16:50:51.017Z,100621.48
2019-01-24T16:53:17.463Z,100630.34
2019-01-24T16:55:43.908Z,100626.95
2019-01-24T16:58:10.387Z,100630.09
2019-01-24T17:00:41.741Z,100634.33
2019-01-24T17:03:09.504Z,100636.31
2019-01-24T17:05:37.912Z,100635.96
2019-01-24T17:08:05.423Z,100640.83
2019-01-24T17:10:31.943Z,100633.28
2019-01-24T17:12:58.477Z,100629.16
2019-01-24T17:15:25.518Z,100628.69
2019-01-24T17:17:52.361Z,100630.33
2019-01-24T17:20:23.152Z,100635.73
2019-01-24T17:22:49.781Z,100627.91
2019-01-24T17:25:17.712Z,100633.78
2019-01-24T17:27:46.356Z,100634.64
2019-01-24T17:30:18.509Z,100624.34
2019-01-24T17:32:45.209Z,100624.80
2019-01-24T17:35:11.814Z,100629.19
2019-01-24T17:37:40.310Z,100629.44
2019-01-24T17:40:13.831Z,100621.78
2019-01-24T17:42:40.530Z,100626.06
2019-01-24T17:45:12.300Z,100629.30
2019-01-24T17:47:38.746Z,100630.77
2019-01-24T17:50:09.963Z,100636.04
2019-01-24T17:52:36.435Z,100628.51
2019-01-24T17:55:08.590Z,100632.42
2019-01-24T17:57:38.556Z,100636.31
2019-01-24T18:00:11.463Z,100634.88
2019-01-24T18:02:40.114Z,100640.23
2019-01-24T18:05:08.650Z,100640.96
2019-01-24T18:07:35.493Z,100637.20
2019-01-24T18:10:13.885Z,100645.72
2019-01-24T18:12:36.142Z,100643.38
2019-01-24T18:15:09.890Z,100643.17
2019-01-24T18:17:36.556Z,100646.80
2019-01-24T18:20:08.941Z,100649.17
2019-01-24T18:22:35.826Z,100651.20
2019-01-24T18:25:04.374Z,100656.41
2019-01-24T18:27:31.077Z,100664.64
2019-01-24T18:29:57.675Z,100665.97
2019-01-24T18:32:24.327Z,100670.94
2019-01-24T18:34:50.826Z,100671.02
2019-01-24T18:37:17.295Z,100674.16
2019-01-24T18:39:43.873Z,100668.61
2019-01-24T18:42:10.973Z,100669.11
2019-01-24T18:44:37.628Z,100667.72
2019-01-24T18:47:04.471Z,100674.86
2019-01-24T18:49:31.246Z,100673.47
2019-01-24T18:51:57.822Z,100675.13
2019-01-24T18:54:24.268Z,100671.91
2019-01-24T18:56:50.765Z,100673.88
2019-01-24T18:59:17.555Z,100671.52
2019-01-24T19:01:44.052Z,100675.35
2019-01-24T19:04:10.518Z,100669.03
2019-01-24T19:06:52.186Z,100673.38
2019-01-24T19:09:18.693Z,100667.31
2019-01-24T19:11:46.916Z,100674.98
2019-01-24T19:14:13.904Z,100677.87
2019-01-24T19:16:40.370Z,100674.54
2019-01-24T19:19:06.969Z,100673.17
2019-01-24T19:21:33.532Z,100672.02
2019-01-24T19:23:59.973Z,100676.63
2019-01-24T19:26:27.039Z,100672.77
2019-01-24T19:28:53.760Z,100671.98
2019-01-24T19:31:20.210Z,100678.93
2019-01-24T19:33:46.782Z,100677.92
2019-01-24T19:36:13.568Z,100665.64
2019-01-24T19:38:40.034Z,100666.72
2019-01-24T19:41:07.871Z,100680.60
2019-01-24T19:43:34.339Z,100671.94
2019-01-24T19:46:00.779Z,100674.73
2019-01-24T19:48:27.401Z,100674.59
2019-01-24T19:50:53.882Z,100668.92
2019-01-24T19:53:20.361Z,100671.52
2019-01-24T19:55:47.488Z,100668.61
2019-01-24T19:58:14.136Z,100678.86
2019-01-24T20:00:40.605Z,100675.83
2019-01-24T20:03:07.535Z,100679.59
2019-01-24T20:05:34.046Z,100683.10
2019-01-24T20:08:00.725Z,100681.47
2019-01-24T20:10:28.630Z,100671.67
2019-01-24T20:12:55.388Z,100677.31
2019-01-24T20:15:25.188Z,100675.68
2019-01-24T20:17:51.821Z,100677.31
2019-01-24T20:20:18.734Z,100669.84
2019-01-24T20:22:45.388Z,100671.33
2019-01-24T20:25:21.001Z,100664.88
2019-01-24T20:27:48.654Z,100672.61
2019-01-24T20:30:18.725Z,100678.36
2019-01-24T20:32:45.358Z,100677.30
2019-01-24T20:35:17.671Z,100672.22
2019-01-24T20:37:47.207Z,100674.82
2019-01-24T20:40:13.871Z,100673.97
2019-01-24T20:42:40.948Z,100679.72
2019-01-24T20:45:10.322Z,100679.84
2019-01-24T20:47:36.880Z,100676.50
2019-01-24T20:50:09.646Z,100667.68
2019-01-24T20:52:36.335Z,100667.25
2019-01-24T20:55:23.204Z,100665.92
2019-01-24T20:57:50.549Z,100664.80
2019-01-24T21:00:21.392Z,100657.61
2019-01-24T21:02:48.582Z,100665.66
2019-01-24T21:05:19.304Z,100668.22
2019-01-24T21:07:46.116Z,100671.20
2019-01-24T21:10:16.672Z,100671.17
2019-01-24T21:12:43.416Z,100672.38
2019-01-24T21:15:13.745Z,100668.30
2019-01-24T21:17:40.444Z,100678.67
2019-01-24T21:20:12.453Z,100673.34
2019-01-24T21:22:39.028Z,100680.65
2019-01-24T21:25:10.440Z,100675.09
2019-01-24T21:27:37.052Z,100672.26
2019-01-24T21:30:09.348Z,100681.86
2019-01-24T21:32:36.012Z,100677.81
2019-01-24T21:35:06.284Z,100681.73
2019-01-24T21:37:32.854Z,100683.36
2019-01-24T21:39:59.469Z,100686.28
2019-01-24T21:42:26.247Z,100683.72
2019-01-24T21:44:52.798Z,100685.65
2019-01-24T21:47:22.407Z,100679.52
2019-01-24T21:49:49.015Z,100682.35
2019-01-24T21:52:17.509Z,100677.37
2019-01-24T21:54:44.200Z,100674.93
2019-01-24T21:57:10.813Z,100673.92
2019-01-24T21:59:37.793Z,100665.61
2019-01-24T22:02:06.005Z,100665.44
2019-01-24T22:04:32.656Z,100660.95
2019-01-24T22:06:59.332Z,100664.53
2019-01-24T22:09:29.207Z,100662.16
2019-01-24T22:11:54.484Z,100676.30
2019-01-24T22:14:21.085Z,100666.62
2019-01-24T22:16:48.815Z,100661.53
2019-01-24T22:19:15.417Z,100661.14
2019-01-24T22:21:42.218Z,100664.37
2019-01-24T22:24:08.865Z,100660.98
2019-01-24T22:26:35.417Z,100656.25
2019-01-24T22:29:02.031Z,100665.48
2019-01-24T22:31:28.775Z,100662.45
2019-01-24T22:33:55.383Z,100661.98
2019-01-24T22:36:22.093Z,100666.26
2019-01-24T22:38:48.728Z,100660.13
2019-01-24T22:41:15.343Z,100655.70
2019-01-24T22:43:41.935Z,100655.35
2019-01-24T22:46:08.632Z,100654.58
2019-01-24T22:48:35.218Z,100646.19
2019-01-24T22:51:01.801Z,100644.09
2019-01-24T22:53:28.463Z,100638.45
2019-01-24T22:55:55.304Z,100646.00
2019-01-24T22:58:21.945Z,100630.92
2019-01-24T23:00:54.719Z,100633.06
2019-01-24T23:03:29.172Z,100632.23
2019-01-24T23:05:55.843Z,100633.45
2019-01-24T23:08:22.391Z,100623.03
2019-01-24T23:10:48.962Z,100629.02
2019-01-24T23:13:15.556Z,100623.31
2019-01-24T23:15:42.166Z,100623.97
2019-01-24T23:18:08.801Z,100631.08
2019-01-24T23:20:35.573Z,100628.02
2019-01-24T23:23:02.811Z,100629.52
2019-01-24T23:25:29.563Z,100621.69
2019-01-24T23:27:56.317Z,100623.51
2019-01-24T23:30:22.955Z,100616.13
2019-01-24T23:32:49.969Z,100616.20
2019-01-24T23:35:16.675Z,100610.56
2019-01-24T23:37:43.372Z,100616.44
2019-01-24T23:40:10.904Z,100611.50
2019-01-24T23:42:37.469Z,100606.18
2019-01-24T23:45:07.982Z,100612.67
2019-01-24T23:47:34.568Z,100608.55
2019-01-24T23:50:01.231Z,100608.59
2019-01-24T23:52:27.999Z,100604.91
2019-01-24T23:54:55.704Z,100601.29
2019-01-24T23:57:23.942Z,100598.42
2019-01-24T23:59:50.811Z,100605.21
